Time;durP1;ratioP1;P1;durP2;ratioP2;P2;SDS_P1;SDS_P2;PMS_P1;PMS_P2;Temp;Humidity;BMP_temperature;BMP_pressure;BME280_temperature;BME280_humidity;BME280_pressure;Samples;Min_cycle;Max_cycle;Signal;HPM_P1;HPM_P2
2021/11/02 00:01:39;;;;;;;31.30;27.58;;;;;;;13.36;62.48;98891.16;5065883;27;97676;-83
2021/11/02 00:04:05;;;;;;;32.88;25.98;;;;;;;13.22;63.37;98872.78;5033213;27;101219;-81
2021/11/02 00:06:30;;;;;;;35.88;27.17;;;;;;;13.30;62.93;98882.84;5045767;27;97446;-82
2021/11/02 00:08:56;;;;;;;35.90;27.30;;;;;;;13.34;62.99;98893.06;5034341;27;97008;-81
2021/11/02 00:11:21;;;;;;;34.13;27.02;;;;;;;13.21;63.65;98886.91;5054973;27;97289;-81
2021/11/02 00:13:51;;;;;;;32.97;26.42;;;;;;;13.22;63.10;98879.84;5052410;27;97513;-80
2021/11/02 00:16:21;;;;;;;32.70;27.67;;;;;;;13.20;63.04;98864.13;5025856;27;100897;-81
2021/11/02 00:18:55;;;;;;;30.98;27.02;;;;;;;13.29;63.46;98871.47;5050276;27;97814;-82
2021/11/02 00:21:22;;;;;;;36.25;27.73;;;;;;;13.24;63.47;98863.00;5069683;27;98266;-81
2021/11/02 00:23:56;;;;;;;37.58;28.30;;;;;;;13.26;63.21;98863.75;5059369;27;101039;-81
2021/11/02 00:26:22;;;;;;;33.60;26.80;;;;;;;13.26;63.27;98865.53;5041697;27;101017;-81
2021/11/02 00:28:48;;;;;;;32.00;27.08;;;;;;;13.26;63.45;98862.91;5033801;27;98656;-81
2021/11/02 00:31:13;;;;;;;35.67;26.10;;;;;;;13.33;63.50;98870.31;5038688;27;97281;-81
2021/11/02 00:33:39;;;;;;;30.65;26.80;;;;;;;13.36;63.22;98866.63;5068868;27;101586;-81
2021/11/02 00:36:05;;;;;;;33.00;28.05;;;;;;;13.25;63.83;98856.81;5034552;27;100923;-81
2021/11/02 00:38:31;;;;;;;32.90;28.48;;;;;;;13.27;63.53;98860.19;5069306;27;96752;-82
2021/11/02 00:40:56;;;;;;;32.20;28.02;;;;;;;13.07;64.22;98843.06;5056294;27;96754;-80
2021/11/02 00:43:25;;;;;;;36.22;28.08;;;;;;;13.07;64.36;98845.69;5055365;27;101518;-80
2021/11/02 00:45:52;;;;;;;34.50;28.70;;;;;;;13.17;64.01;98845.06;5049871;27;97976;-85
2021/11/02 00:48:24;;;;;;;34.65;28.40;;;;;;;13.18;64.07;98849.38;5030980;27;96901;-82
2021/11/02 00:50:51;;;;;;;33.35;26.98;;;;;;;13.19;63.87;98841.38;5061859;27;97732;-82
2021/11/02 00:53:17;;;;;;;32.85;27.30;;;;;;;13.13;64.09;98840.00;5036662;27;101536;-81
2021/11/02 00:55:42;;;;;;;35.70;27.58;;;;;;;13.10;64.31;98823.56;5065180;27;98348;-81
2021/11/02 00:58:08;;;;;;;37.60;28.42;;;;;;;12.96;64.91;98821.84;5035615;27;96745;-84
2021/11/02 01:00:35;;;;;;;30.27;26.90;;;;;;;13.14;64.32;98827.66;5033905;27;97601;-81
2021/11/02 01:03:02;;;;;;;33.78;28.63;;;;;;;13.11;64.49;98828.72;5061714;27;99614;-83
2021/11/02 01:05:28;;;;;;;35.97;28.83;;;;;;;13.16;64.36;98831.06;5034185;27;101526;-81
2021/11/02 01:07:53;;;;;;;32.15;27.08;;;;;;;13.09;64.16;98806.09;5069718;27;97017;-87
2021/11/02 01:10:19;;;;;;;34.35;27.63;;;;;;;13.10;64.55;98816.50;5047215;27;98002;-85
2021/11/02 01:12:49;;;;;;;34.53;27.88;;;;;;;13.09;64.31;98825.38;5040307;27;101476;-81
2021/11/02 01:15:17;;;;;;;33.03;27.33;;;;;;;12.98;64.54;98805.97;5042388;27;97693;-82
2021/11/02 01:17:43;;;;;;;34.40;27.15;;;;;;;13.05;64.98;98815.97;5030367;27;97271;-81
2021/11/02 01:20:11;;;;;;;29.92;26.10;;;;;;;13.09;64.46;98814.00;5038704;27;97031;-81
2021/11/02 01:22:38;;;;;;;30.67;26.33;;;;;;;13.09;64.56;98808.72;5040024;27;100191;-81
2021/11/02 01:25:06;;;;;;;31.05;27.08;;;;;;;13.11;64.54;98810.28;5053615;27;101197;-82
2021/11/02 01:27:32;;;;;;;31.38;25.52;;;;;;;13.10;64.34;98802.50;5055501;27;96704;-81
2021/11/02 01:29:58;;;;;;;33.45;27.58;;;;;;;13.18;64.54;98805.44;5060410;27;96994;-81
2021/11/02 01:32:24;;;;;;;34.97;28.08;;;;;;;13.13;64.96;98800.47;5028092;27;101273;-82
2021/11/02 01:34:52;;;;;;;35.70;27.73;;;;;;;13.28;63.90;98798.63;5048838;27;101487;-81
2021/11/02 01:37:18;;;;;;;31.33;27.73;;;;;;;13.27;64.77;98804.84;5051294;27;98653;-83
2021/11/02 01:39:46;;;;;;;36.72;29.15;;;;;;;13.17;65.03;98790.56;5046668;27;96983;-81
2021/11/02 01:42:12;;;;;;;37.63;27.95;;;;;;;13.09;65.21;98790.28;5040880;27;100686;-82
2021/11/02 01:44:38;;;;;;;37.95;29.85;;;;;;;13.16;64.75;98783.63;5044359;27;101394;-82
2021/11/02 01:47:05;;;;;;;35.60;29.00;;;;;;;13.09;65.72;98780.59;5054226;27;96857;-82
2021/11/02 01:49:35;;;;;;;37.95;29.77;;;;;;;13.04;66.26;98773.94;5070870;27;97184;-82
2021/11/02 01:52:02;;;;;;;33.75;27.92;;;;;;;12.97;65.60;98757.69;5035664;27;101967;-84
2021/11/02 01:54:28;;;;;;;36.17;29.77;;;;;;;12.94;66.33;98757.06;5039759;27;101145;-83
2021/11/02 01:56:54;;;;;;;37.25;31.40;;;;;;;12.95;66.47;98766.66;5033907;27;97734;-82
2021/11/02 01:59:25;;;;;;;37.58;30.33;;;;;;;12.90;66.69;98761.72;5036184;27;96830;-82
2021/11/02 02:02:06;;;;;;;36.22;29.75;;;;;;;12.92;67.15;98759.81;5046082;27;101908;-82
2021/11/02 02:04:50;;;;;;;39.40;30.75;;;;;;;13.06;66.75;98754.44;5053749;27;98049;-82
2021/11/02 02:07:39;;;;;;;35.05;29.15;;;;;;;13.02;66.60;98752.13;5054891;27;97232;-83
2021/11/02 02:10:08;;;;;;;34.17;29.67;;;;;;;12.92;67.35;98746.66;5047262;27;97313;-83
2021/11/02 02:12:54;;;;;;;35.67;28.83;;;;;;;12.80;67.50;98739.56;5065436;27;100985;-83
2021/11/02 02:15:27;;;;;;;37.72;30.00;;;;;;;12.73;67.78;98731.25;5066282;27;98464;-83
2021/11/02 02:18:18;;;;;;;37.60;30.05;;;;;;;12.67;68.29;98729.88;5037457;27;97159;-82
2021/11/02 02:21:15;;;;;;;37.95;29.23;;;;;;;12.73;67.98;98728.63;5037487;27;96855;-83
2021/11/02 02:24:16;;;;;;;40.03;30.85;;;;;;;12.75;68.18;98720.63;5067619;27;101817;-82
2021/11/02 02:27:23;;;;;;;37.70;29.88;;;;;;;12.67;68.26;98723.78;5059894;27;101594;-83
2021/11/02 02:29:49;;;;;;;35.00;29.20;;;;;;;12.64;68.55;98719.56;4991495;27;97118;-84
2021/11/02 02:32:23;;;;;;;37.85;31.13;;;;;;;12.71;68.51;98719.97;5050599;27;97225;-83
2021/11/02 02:34:51;;;;;;;37.38;29.80;;;;;;;12.83;68.54;98710.41;5049955;27;101522;-83
2021/11/02 02:37:20;;;;;;;35.90;29.58;;;;;;;12.92;67.58;98709.78;5055982;27;99965;-83
2021/11/02 02:39:54;;;;;;;37.05;30.80;;;;;;;12.75;68.19;98692.50;5051448;27;97103;-82
2021/11/02 02:42:22;;;;;;;37.53;29.40;;;;;;;12.66;68.68;98708.94;5038552;27;97039;-83
2021/11/02 02:44:50;;;;;;;36.95;30.90;;;;;;;12.59;68.82;98712.91;5045006;27;98467;-83
2021/11/02 02:47:19;;;;;;;40.25;31.02;;;;;;;12.62;68.99;98710.06;5048208;27;102232;-82
2021/11/02 02:49:45;;;;;;;48.63;35.97;;;;;;;12.66;68.72;98698.41;5034799;27;97306;-83
2021/11/02 02:52:13;;;;;;;43.25;33.45;;;;;;;12.53;69.27;98697.53;5038433;27;96920;-83
2021/11/02 02:54:45;;;;;;;40.22;31.73;;;;;;;12.52;69.13;98695.88;5051269;27;101131;-83
2021/11/02 02:57:12;;;;;;;40.78;33.70;;;;;;;12.40;69.28;98682.59;5059769;27;101915;-82
2021/11/02 02:59:39;;;;;;;35.10;31.30;;;;;;;12.37;69.22;98681.97;5054965;27;96850;-82
2021/11/02 03:02:07;;;;;;;38.65;32.13;;;;;;;12.41;70.47;98705.31;5025514;27;97059;-82
2021/11/02 03:04:34;;;;;;;41.55;32.95;;;;;;;12.39;70.13;98694.06;5039724;27;101653;-82
2021/11/02 03:07:06;;;;;;;40.22;34.22;;;;;;;12.16;70.46;98661.41;5061865;27;102038;-83
2021/11/02 03:09:33;;;;;;;36.33;31.63;;;;;;;12.37;70.17;98689.84;5059595;27;97083;-82
2021/11/02 03:11:59;;;;;;;39.47;31.67;;;;;;;12.25;70.77;98688.88;5039944;27;97962;-86
2021/11/02 03:14:46;;;;;;;34.60;29.92;;;;;;;12.32;70.84;98695.41;5052573;27;102508;-82
2021/11/02 03:17:13;;;;;;;40.95;31.90;;;;;;;12.16;70.61;98671.09;5069649;27;101676;-82
2021/11/02 03:44:53;;;;;;;49.33;36.35;;;;;;;12.35;70.24;98694.38;5061930;27;96788;-82
2021/11/02 03:55:52;;;;;;;45.53;35.15;;;;;;;11.91;71.56;98693.72;5052898;27;97119;-82
2021/11/02 03:58:27;;;;;;;39.35;32.72;;;;;;;11.96;71.37;98698.69;5034015;27;101488;-82
2021/11/02 04:31:50;;;;;;;45.58;35.05;;;;;;;11.74;72.35;98681.63;5046864;27;101777;-83
2021/11/02 05:48:33;;;;;;;46.47;34.25;;;;;;;11.60;72.72;98626.50;5062558;27;98004;-83
2021/11/02 05:56:14;;;;;;;45.10;33.55;;;;;;;11.49;73.45;98632.47;5059163;27;96925;-85
2021/11/02 06:28:43;;;;;;;45.33;34.50;;;;;;;11.39;73.79;98625.25;5071258;27;97172;-80
2021/11/02 06:31:19;;;;;;;51.33;35.90;;;;;;;11.51;73.70;98635.81;5052489;27;100477;-80
2021/11/02 06:33:51;;;;;;;50.65;35.55;;;;;;;11.47;73.88;98642.22;5062633;27;101437;-79
2021/11/02 06:52:18;;;;;;;38.63;30.60;;;;;;;11.73;72.50;98645.78;5069929;27;97728;-78
2021/11/02 06:58:04;;;;;;;;;;;;;;;11.51;73.78;98658.63;5049957;27;97137;-78
2021/11/02 07:20:26;;;;;;;8.45;7.18;;;;;;;11.52;72.27;98673.47;5069536;27;97251;-78
2021/11/02 08:48:43;;;;;;;7.05;6.45;;;;;;;11.51;70.67;98719.91;5044723;27;97692;-86
2021/11/02 08:51:09;;;;;;;6.72;6.20;;;;;;;11.52;71.16;98708.47;5070365;27;98166;-85
2021/11/02 08:53:35;;;;;;;7.53;6.35;;;;;;;11.51;70.96;98708.56;5044999;27;101039;-87
2021/11/02 08:56:02;;;;;;;6.82;5.72;;;;;;;11.50;71.11;98705.09;5069013;27;101730;-89
2021/11/02 08:58:29;;;;;;;6.43;5.82;;;;;;;11.43;70.51;98708.19;5038612;27;97775;-86
2021/11/02 09:01:02;;;;;;;6.50;6.00;;;;;;;11.42;70.51;98703.88;5069614;27;97165;-84
2021/11/02 09:03:30;;;;;;;6.25;5.75;;;;;;;11.46;70.32;98711.50;5046689;27;97867;-86
2021/11/02 09:06:03;;;;;;;7.22;5.50;;;;;;;11.39;70.67;98711.97;5050386;27;100963;-86
2021/11/02 09:08:30;;;;;;;9.02;6.22;;;;;;;11.40;70.07;98705.75;5047620;27;97259;-87
2021/11/02 09:10:58;;;;;;;6.07;5.57;;;;;;;11.47;70.49;98730.72;5044154;27;96991;-87
2021/11/02 09:13:25;;;;;;;6.10;5.60;;;;;;;11.48;70.34;98727.97;5047066;27;101442;-87
2021/11/02 09:15:54;;;;;;;7.18;6.53;;;;;;;11.44;70.27;98723.88;5044292;27;96994;-85
2021/11/02 09:18:21;;;;;;;8.23;6.00;;;;;;;11.38;70.56;98721.63;5062392;27;97091;-85
2021/11/02 09:20:48;;;;;;;6.65;5.95;;;;;;;11.35;70.73;98724.44;5047578;27;96794;-84
2021/11/02 09:23:14;;;;;;;6.78;6.28;;;;;;;11.31;70.87;98731.69;5045433;27;98006;-84
2021/11/02 09:25:39;;;;;;;6.05;5.45;;;;;;;11.35;70.65;98736.75;5045003;27;98573;-85
2021/11/02 09:28:05;;;;;;;6.40;5.80;;;;;;;11.33;70.97;98748.16;5053609;27;97430;-85
2021/11/02 09:30:31;;;;;;;6.15;5.65;;;;;;;11.26;70.72;98717.97;5039169;27;97310;-83
2021/11/02 09:32:57;;;;;;;7.03;6.00;;;;;;;11.35;70.40;98713.09;5033441;27;101205;-76
2021/11/02 09:35:25;;;;;;;5.85;5.45;;;;;;;11.38;70.61;98733.94;5032745;27;101342;-77
2021/11/02 09:38:21;;;;;;;6.50;5.80;;;;;;;11.45;70.76;98754.44;5037897;27;97235;-76
2021/11/02 09:41:26;;;;;;;5.65;5.20;;;;;;;11.41;70.63;98747.72;5008446;27;97476;-76
2021/11/02 09:44:13;;;;;;;7.00;5.15;;;;;;;11.40;70.45;98729.41;5039746;27;100336;-76
2021/11/02 09:46:57;;;;;;;7.32;5.82;;;;;;;11.45;70.23;98756.22;5063050;27;100838;-82
2021/11/02 09:49:50;;;;;;;7.95;5.85;;;;;;;11.43;70.51;98752.84;5033924;27;97935;-80
2021/11/02 09:52:34;;;;;;;6.80;5.30;;;;;;;11.39;70.27;98760.09;5064234;27;96683;-87
2021/11/02 09:55:34;;;;;;;6.30;5.22;;;;;;;11.33;71.11;98750.81;5075626;27;98107;-79
2021/11/02 09:58:06;;;;;;;5.93;5.40;;;;;;;11.33;71.36;98757.84;5062288;27;101744;-78
2021/11/02 10:00:33;;;;;;;6.25;5.72;;;;;;;11.45;70.24;98754.44;5073311;27;96816;-80
2021/11/02 10:03:19;;;;;;;7.18;5.97;;;;;;;11.38;70.67;98753.16;5068973;27;96955;-82
2021/11/02 10:05:59;;;;;;;6.70;5.90;;;;;;;11.41;70.58;98758.22;5044975;27;101744;-84
2021/11/02 10:08:33;;;;;;;9.40;5.43;;;;;;;11.56;70.46;98754.63;5047082;27;100054;-84
2021/11/02 10:11:11;;;;;;;9.50;5.53;;;;;;;11.46;70.23;98766.66;5036406;27;98047;-85
2021/11/02 10:13:47;;;;;;;5.78;5.28;;;;;;;11.40;70.56;98763.56;5062822;27;96902;-84
2021/11/02 10:16:22;;;;;;;5.20;4.70;;;;;;;11.42;70.52;98767.78;5062905;27;100478;-83
2021/11/02 10:18:58;;;;;;;5.40;4.95;;;;;;;11.43;71.14;98766.84;5045605;27;100479;-82
2021/11/02 10:21:27;;;;;;;5.75;5.22;;;;;;;11.47;70.33;98767.50;5043851;27;97881;-84
2021/11/02 10:24:27;;;;;;;5.40;5.00;;;;;;;11.36;71.44;98764.69;5054402;27;97232;-84
2021/11/02 10:27:30;;;;;;;5.65;5.13;;;;;;;11.33;71.61;98749.97;5065008;27;101329;-85
2021/11/02 10:30:23;;;;;;;6.07;4.70;;;;;;;11.40;71.17;98753.03;5034225;27;101210;-84
2021/11/02 10:32:56;;;;;;;4.85;4.40;;;;;;;11.60;70.41;98764.94;5068990;27;96651;-84
2021/11/02 10:35:36;;;;;;;4.97;4.55;;;;;;;11.45;71.10;98766.75;5039844;27;96898;-86
2021/11/02 10:38:22;;;;;;;4.65;4.13;;;;;;;11.41;70.96;98765.25;5051989;27;97693;-84
2021/11/02 10:40:52;;;;;;;7.07;4.40;;;;;;;11.43;70.48;98769.47;5047337;27;101321;-85
2021/11/02 10:43:31;;;;;;;5.72;4.32;;;;;;;11.41;70.81;98766.09;5065501;27;96831;-83
2021/11/02 10:46:06;;;;;;;4.75;4.35;;;;;;;11.51;70.71;98761.09;5040636;27;97023;-83
2021/11/02 10:48:43;;;;;;;5.22;4.82;;;;;;;11.35;70.62;98740.22;5026600;27;101654;-84
2021/11/02 10:51:35;;;;;;;4.65;4.30;;;;;;;11.51;71.10;98763.72;5065807;27;101388;-84
2021/11/02 10:54:05;;;;;;;5.07;4.68;;;;;;;11.44;70.07;98744.88;5043384;27;96833;-82
2021/11/02 10:56:30;;;;;;;5.03;4.63;;;;;;;11.66;70.53;98767.19;5049401;27;96869;-81
2021/11/02 10:58:59;;;;;;;5.70;4.70;;;;;;;11.49;70.66;98731.44;5044390;27;101433;-81
2021/11/02 11:01:29;;;;;;;6.43;4.90;;;;;;;11.73;70.57;98763.25;5032398;27;101197;-81
2021/11/02 11:03:56;;;;;;;6.57;5.40;;;;;;;11.70;70.53;98766.06;5021176;27;97367;-84
2021/11/02 11:06:24;;;;;;;6.63;4.90;;;;;;;11.82;70.21;98760.03;5054059;27;96810;-82
2021/11/02 11:08:51;;;;;;;5.20;4.60;;;;;;;11.84;69.35;98768.66;5034790;27;101060;-82
2021/11/02 11:11:18;;;;;;;5.28;4.78;;;;;;;11.83;69.57;98764.31;5041080;27;97944;-82
2021/11/02 11:13:49;;;;;;;5.55;5.10;;;;;;;11.85;69.27;98775.63;5042821;27;97122;-83
2021/11/02 11:16:21;;;;;;;5.03;4.63;;;;;;;11.82;69.27;98775.78;5052444;27;97425;-85
2021/11/02 11:19:06;;;;;;;5.47;5.07;;;;;;;11.92;69.26;98776.06;5054184;27;101713;-82
2021/11/02 11:21:35;;;;;;;5.70;3.80;;;;;;;11.89;69.07;98765.75;5058015;27;101287;-89
2021/11/02 11:24:14;;;;;;;5.25;4.75;;;;;;;11.79;67.63;98753.16;5052268;27;96679;-87
2021/11/02 11:26:48;;;;;;;3.80;3.50;;;;;;;11.93;67.52;98772.53;5052548;27;97053;-88
2021/11/02 11:29:25;;;;;;;4.63;4.22;;;;;;;11.93;67.75;98767.25;5064659;27;100993;-77
2021/11/02 11:31:52;;;;;;;5.57;4.10;;;;;;;11.91;67.78;98743.69;5059971;27;99506;-78
2021/11/02 11:34:18;;;;;;;4.18;3.88;;;;;;;12.10;66.67;98755.63;5048303;27;97282;-80
2021/11/02 11:36:51;;;;;;;4.72;4.32;;;;;;;12.10;67.05;98768.78;5051005;27;96912;-77
2021/11/02 11:39:20;;;;;;;4.35;4.05;;;;;;;12.06;66.51;98754.16;5036379;27;101351;-79
2021/11/02 11:41:52;;;;;;;6.78;4.85;;;;;;;12.09;66.07;98767.94;5052135;27;100698;-78
2021/11/02 11:44:19;;;;;;;6.18;5.22;;;;;;;12.08;66.28;98768.06;5070604;27;97139;-80
2021/11/02 11:46:47;;;;;;;5.97;4.97;;;;;;;12.05;65.95;98774.34;5044306;27;97288;-78
2021/11/02 11:49:23;;;;;;;6.53;5.75;;;;;;;12.06;66.14;98775.19;5040482;27;98355;-77
2021/11/02 11:52:01;;;;;;;7.18;5.53;;;;;;;12.03;66.07;98773.59;5045614;27;97907;-77
2021/11/02 11:54:31;;;;;;;4.30;4.00;;;;;;;12.04;64.91;98774.44;5050933;27;97240;-78
2021/11/02 11:57:00;;;;;;;4.80;4.38;;;;;;;12.09;65.43;98773.19;5072503;27;97034;-78
2021/11/02 11:59:27;;;;;;;7.28;5.28;;;;;;;12.13;65.93;98774.72;5052840;27;101425;-78
2021/11/02 12:02:13;;;;;;;8.63;5.82;;;;;;;12.17;65.66;98772.72;5033971;27;101397;-77
2021/11/02 12:04:47;;;;;;;5.10;4.60;;;;;;;12.21;65.56;98772.41;5046690;27;96967;-78
2021/11/02 12:07:25;;;;;;;5.93;4.53;;;;;;;12.22;65.07;98778.53;5048396;27;97149;-77
2021/11/02 12:09:54;;;;;;;4.60;4.20;;;;;;;12.08;64.59;98757.53;5053065;27;101483;-77
2021/11/02 12:12:22;;;;;;;4.85;4.43;;;;;;;12.13;64.73;98768.56;5050334;27;101047;-80
2021/11/02 12:14:55;;;;;;;4.10;3.80;;;;;;;12.18;64.62;98775.22;5046419;27;97312;-77
2021/11/02 12:17:21;;;;;;;5.82;3.95;;;;;;;12.12;65.28;98777.44;5041681;27;96751;-80
2021/11/02 12:20:03;;;;;;;6.57;4.05;;;;;;;12.11;64.47;98776.59;5047875;27;101265;-77
2021/11/02 12:22:35;;;;;;;3.50;3.20;;;;;;;12.04;64.60;98772.66;5062121;27;97872;-81
2021/11/02 12:25:08;;;;;;;4.63;4.20;;;;;;;12.14;64.65;98778.19;5039429;27;97403;-82
2021/11/02 12:27:37;;;;;;;4.32;3.92;;;;;;;12.01;64.72;98775.47;5039668;27;97236;-82
2021/11/02 12:30:06;;;;;;;4.55;3.90;;;;;;;12.04;64.87;98777.06;5066440;27;97923;-82
2021/11/02 12:32:32;;;;;;;3.70;3.40;;;;;;;11.97;64.60;98769.56;5051216;27;97557;-81
2021/11/02 12:35:07;;;;;;;4.60;4.20;;;;;;;12.09;64.46;98761.84;5044656;27;96830;-82
2021/11/02 12:37:34;;;;;;;4.20;3.83;;;;;;;12.21;64.41;98761.03;5032867;27;97223;-82
2021/11/02 12:40:34;;;;;;;5.25;4.13;;;;;;;12.32;64.04;98774.34;5051039;27;98273;-79
2021/11/02 12:42:59;;;;;;;5.18;3.97;;;;;;;12.41;63.59;98778.16;4998571;27;101274;-79
2021/11/02 12:45:35;;;;;;;3.90;3.58;;;;;;;12.46;64.15;98782.16;5024276;27;97435;-79
2021/11/02 12:48:01;;;;;;;4.68;3.17;;;;;;;12.55;64.05;98785.97;5049941;27;97872;-79
2021/11/02 12:50:33;;;;;;;4.20;3.90;;;;;;;12.52;63.53;98778.28;5046489;27;100980;-80
2021/11/02 12:53:00;;;;;;;4.82;4.15;;;;;;;12.54;63.43;98784.31;5051470;27;100715;-78
2021/11/02 12:55:29;;;;;;;5.50;3.83;;;;;;;12.57;63.42;98788.53;5044272;27;96902;-79
2021/11/02 12:58:14;;;;;;;3.97;3.58;;;;;;;12.46;62.91;98768.19;5046437;27;97118;-79
2021/11/02 13:00:50;;;;;;;5.00;4.60;;;;;;;12.45;63.35;98777.88;5053695;27;97651;-79
2021/11/02 13:03:30;;;;;;;6.45;5.93;;;;;;;12.42;63.58;98783.34;5055097;27;100791;-79
2021/11/02 13:05:59;;;;;;;5.15;4.85;;;;;;;12.41;63.12;98770.25;5047529;27;97228;-79
2021/11/02 13:08:35;;;;;;;6.45;5.95;;;;;;;12.43;63.89;98766.59;5069552;27;97154;-79
2021/11/02 13:11:21;;;;;;;4.70;4.30;;;;;;;12.49;64.54;98764.50;5053013;27;100345;-89
2021/11/02 13:14:03;;;;;;;5.97;5.47;;;;;;;12.50;64.66;98747.75;5038013;27;102123;-83
2021/11/02 13:16:35;;;;;;;6.13;5.60;;;;;;;12.54;63.21;98738.72;5047677;27;97128;-83
2021/11/02 13:19:13;;;;;;;5.45;4.72;;;;;;;12.66;63.15;98766.84;5074925;27;97114;-83
2021/11/02 13:21:39;;;;;;;7.15;6.35;;;;;;;12.59;62.54;98763.75;5036044;27;102123;-83
2021/11/02 13:24:16;;;;;;;6.55;5.95;;;;;;;12.73;62.31;98769.91;5053307;27;102298;-83
2021/11/02 13:26:48;;;;;;;6.53;6.00;;;;;;;12.68;62.50;98768.44;5061101;27;96873;-82
2021/11/02 13:29:17;;;;;;;6.18;5.57;;;;;;;12.63;63.13;98756.53;5029135;27;97223;-83
2021/11/02 13:31:47;;;;;;;5.32;4.93;;;;;;;12.77;62.76;98760.84;5050935;27;100805;-83
2021/11/02 13:34:18;;;;;;;5.93;5.43;;;;;;;12.86;61.85;98766.34;5041393;27;102147;-83
2021/11/02 13:36:45;;;;;;;6.28;5.78;;;;;;;12.86;61.78;98776.88;5042516;27;97464;-83
2021/11/02 13:39:15;;;;;;;6.20;5.70;;;;;;;12.86;61.65;98768.13;5044168;27;96959;-84
2021/11/02 13:41:49;;;;;;;6.18;5.57;;;;;;;12.95;61.64;98770.16;5051738;27;101592;-83
2021/11/02 13:44:16;;;;;;;8.45;5.30;;;;;;;12.91;61.34;98761.63;5040513;27;101908;-84
2021/11/02 13:46:46;;;;;;;6.43;5.38;;;;;;;12.87;61.63;98746.94;5054339;27;96751;-83
2021/11/02 13:49:13;;;;;;;5.40;5.00;;;;;;;13.02;61.87;98760.84;5051641;27;97116;-83
2021/11/02 13:51:39;;;;;;;4.32;4.03;;;;;;;13.14;61.49;98767.91;5024847;27;101387;-83
2021/11/02 13:54:06;;;;;;;5.65;5.25;;;;;;;13.23;62.04;98778.78;5040302;27;101640;-83
2021/11/02 13:56:35;;;;;;;5.72;5.32;;;;;;;13.22;60.62;98777.94;5047966;27;97410;-83
2021/11/02 13:59:03;;;;;;;5.43;5.03;;;;;;;13.17;59.17;98774.75;5046864;27;97151;-83
2021/11/02 14:01:48;;;;;;;5.43;5.13;;;;;;;13.19;59.35;98785.22;5034144;27;101136;-87
2021/11/02 14:04:15;;;;;;;5.60;5.13;;;;;;;13.03;59.72;98765.19;5035769;27;101412;-86
2021/11/02 14:06:44;;;;;;;4.93;4.63;;;;;;;12.86;59.55;98757.59;5061402;27;97217;-86
2021/11/02 14:09:11;;;;;;;4.80;4.40;;;;;;;12.95;60.57;98783.31;5063379;27;96982;-85
2021/11/02 14:11:38;;;;;;;5.20;4.90;;;;;;;12.93;60.16;98797.53;5027460;27;101811;-86
2021/11/02 14:14:06;;;;;;;5.25;4.80;;;;;;;12.79;60.37;98794.03;5042174;27;101456;-86
2021/11/02 14:16:37;;;;;;;5.95;4.53;;;;;;;12.71;60.72;98798.94;5031989;27;97486;-86
2021/11/02 14:19:03;;;;;;;;;;;;;;;12.52;60.96;98794.09;5021951;27;97717;-86
2021/11/02 14:21:49;;;;;;;6.00;5.50;;;;;;;12.46;61.17;98807.66;5043122;27;101302;-79
2021/11/02 14:24:29;;;;;;;6.07;5.47;;;;;;;12.43;61.29;98799.97;5048848;27;100973;-90
2021/11/02 14:26:55;;;;;;;8.68;6.78;;;;;;;12.40;62.01;98797.53;5022332;27;97184;-84
2021/11/02 14:29:46;;;;;;;8.82;6.90;;;;;;;12.38;61.63;98805.50;5030918;27;97183;-83
2021/11/02 14:32:38;;;;;;;8.43;6.60;;;;;;;12.30;61.18;98802.53;5045737;27;101208;-82
2021/11/02 14:35:04;;;;;;;7.97;6.60;;;;;;;11.95;61.45;98763.56;5059893;27;97500;-82
2021/11/02 14:37:50;;;;;;;8.45;6.15;;;;;;;12.11;62.34;98791.53;5068895;27;97147;-82
2021/11/02 14:40:25;;;;;;;8.02;6.03;;;;;;;12.09;63.11;98810.03;5031839;27;96993;-83
2021/11/02 14:42:52;;;;;;;6.63;6.13;;;;;;;12.14;62.89;98815.00;5066544;27;98661;-85
2021/11/02 14:45:19;;;;;;;8.52;5.60;;;;;;;12.04;62.51;98813.88;5046538;27;101578;-85
2021/11/02 14:47:46;;;;;;;6.45;5.93;;;;;;;12.03;63.48;98807.78;5031982;27;100064;-83
2021/11/02 14:50:31;;;;;;;5.68;5.18;;;;;;;11.94;63.27;98809.22;5040472;27;96913;-82
2021/11/02 14:53:14;;;;;;;6.68;5.97;;;;;;;11.92;63.08;98812.88;5066152;27;98090;-82
2021/11/02 14:56:07;;;;;;;6.38;5.78;;;;;;;11.91;62.54;98809.41;5038975;27;101288;-82
2021/11/02 14:58:39;;;;;;;6.75;6.30;;;;;;;11.93;62.93;98810.16;5042793;27;97119;-83
2021/11/02 15:01:25;;;;;;;7.00;6.40;;;;;;;11.92;63.34;98815.50;5056552;27;97256;-81
2021/11/02 15:03:54;;;;;;;6.57;6.07;;;;;;;11.85;63.71;98807.19;5017385;27;101957;-83
2021/11/02 15:06:21;;;;;;;6.55;6.05;;;;;;;11.90;62.92;98814.78;5067200;27;97779;-83
2021/11/02 15:08:47;;;;;;;5.97;5.57;;;;;;;11.94;62.74;98825.00;5037478;27;97192;-83
2021/11/02 15:11:17;;;;;;;8.27;6.72;;;;;;;11.70;63.25;98780.03;5049527;27;97233;-83
2021/11/02 15:13:51;;;;;;;10.75;9.65;;;;;;;11.92;63.13;98820.78;5038180;27;100918;-82
2021/11/02 15:16:18;;;;;;;13.88;12.02;;;;;;;11.89;63.00;98826.22;5050235;27;101925;-82
2021/11/02 15:19:00;;;;;;;14.45;11.38;;;;;;;11.92;63.05;98831.28;5056076;27;96760;-83
2021/11/02 15:21:35;;;;;;;;;;;;;;;11.83;63.79;98827.44;5073587;27;96723;-82
2021/11/02 15:24:06;;;;;;;21.48;14.38;;;;;;;11.85;63.24;98832.59;5041324;27;101109;-82
2021/11/02 15:26:55;;;;;;;20.40;13.48;;;;;;;11.76;63.45;98836.66;5045434;27;100790;-81
2021/11/02 15:29:24;;;;;;;16.77;11.43;;;;;;;11.64;62.93;98814.59;5054021;27;97429;-79
2021/11/02 15:32:12;;;;;;;14.35;10.48;;;;;;;11.56;63.20;98825.56;5051997;27;96781;-83
2021/11/02 15:34:45;;;;;;;12.48;10.48;;;;;;;11.61;64.03;98856.84;5034099;27;101556;-82
2021/11/02 15:37:34;;;;;;;15.27;12.20;;;;;;;11.55;63.97;98854.59;5040764;27;101150;-82
2021/11/02 15:40:08;;;;;;;16.15;12.70;;;;;;;11.54;64.28;98866.88;5058150;27;97103;-83
2021/11/02 15:42:37;;;;;;;16.95;12.70;;;;;;;11.52;64.33;98852.16;5068952;27;96761;-81
2021/11/02 15:45:08;;;;;;;41.42;22.48;;;;;;;11.42;64.42;98843.97;5065631;27;98619;-86
2021/11/02 15:47:38;;;;;;;43.88;24.38;;;;;;;11.52;64.51;98857.41;5074819;27;98084;-86
2021/11/02 15:50:08;;;;;;;32.92;17.60;;;;;;;11.47;64.29;98856.84;5041696;27;96770;-89
2021/11/02 15:52:36;;;;;;;22.63;13.30;;;;;;;11.37;64.74;98840.78;5056478;27;97299;-84
2021/11/02 15:55:16;;;;;;;20.38;12.07;;;;;;;11.45;65.11;98854.28;5055232;27;98130;-84
2021/11/02 15:57:41;;;;;;;12.30;9.88;;;;;;;11.49;64.65;98858.44;5039968;27;99584;-87
2021/11/02 16:00:11;;;;;;;18.38;10.98;;;;;;;11.59;64.61;98852.63;5050578;27;96671;-77
2021/11/02 16:02:38;;;;;;;13.57;9.75;;;;;;;11.52;64.69;98853.00;5045993;27;96836;-81
2021/11/02 16:05:28;;;;;;;11.52;9.90;;;;;;;11.50;65.29;98857.50;5035749;27;101507;-80
2021/11/02 16:07:54;;;;;;;16.23;9.43;;;;;;;11.53;65.46;98857.31;5052327;27;100679;-78
2021/11/02 16:10:28;;;;;;;9.90;8.90;;;;;;;11.38;64.87;98846.91;5054556;27;97219;-81
2021/11/02 16:12:55;;;;;;;11.55;8.70;;;;;;;11.39;65.29;98849.41;5024635;27;97289;-83
2021/11/02 16:15:28;;;;;;;15.15;9.63;;;;;;;11.42;65.37;98841.34;5037745;27;101262;-83
2021/11/02 16:17:56;;;;;;;10.35;8.70;;;;;;;11.42;65.04;98854.47;5055595;27;98040;-84
2021/11/02 16:20:32;;;;;;;14.18;9.15;;;;;;;11.31;65.40;98846.41;5073365;27;96761;-81
2021/11/02 16:23:07;;;;;;;10.45;9.00;;;;;;;11.44;65.58;98857.88;5052627;27;96985;-82
2021/11/02 16:25:39;;;;;;;12.88;9.05;;;;;;;11.44;65.33;98878.88;5050243;27;101906;-83
2021/11/02 16:28:06;;;;;;;;;;;;;;;11.32;65.32;98883.09;5073027;27;97403;-83
2021/11/02 16:30:57;;;;;;;12.30;9.70;;;;;;;11.26;64.97;98878.22;5039796;27;96871;-84
2021/11/02 16:33:49;;;;;;;13.82;8.27;;;;;;;11.36;65.31;98882.91;5054672;27;96947;-83
2021/11/02 16:36:37;;;;;;;11.85;9.07;;;;;;;11.37;65.43;98889.84;5024280;27;101970;-87
2021/11/02 16:39:19;;;;;;;11.93;9.18;;;;;;;11.33;66.03;98887.41;5066498;27;97831;-86
2021/11/02 16:41:45;;;;;;;14.30;10.02;;;;;;;11.33;65.60;98873.44;5055725;27;96975;-88
2021/11/02 16:44:15;;;;;;;11.20;9.13;;;;;;;11.43;65.25;98884.22;5051069;27;97157;-87
2021/11/02 16:46:44;;;;;;;13.30;9.95;;;;;;;11.39;65.28;98887.97;5039654;27;101442;-86
2021/11/02 16:49:12;;;;;;;17.80;8.70;;;;;;;11.25;65.21;98863.38;5034042;27;100583;-88